Time;durP1;ratioP1;P1;durP2;ratioP2;P2;SDS_P1;SDS_P2;PMS_P1;PMS_P2;Temp;Humidity;BMP_temperature;BMP_pressure;BME280_temperature;BME280_humidity;BME280_pressure;Samples;Min_cycle;Max_cycle;Signal;HPM_P1;HPM_P2
2022/10/02 00:02:26;;;;;;;9.10;8.13;;;;;;;18.84;100.00;99933.66;1697362;84;20950;-59
2022/10/02 00:05:22;;;;;;;10.10;8.20;;;;;;;18.82;100.00;99930.98;1717241;82;21272;-57
2022/10/02 00:08:12;;;;;;;11.97;8.33;;;;;;;18.88;100.00;99932.65;1715454;82;20919;-58
2022/10/02 00:10:50;;;;;;;12.83;8.13;;;;;;;18.85;100.00;99924.69;1689062;84;21161;-59
2022/10/02 00:13:40;;;;;;;9.07;7.97;;;;;;;18.89;100.00;99928.42;1693951;84;20917;-69
2022/10/02 00:16:39;;;;;;;12.00;9.77;;;;;;;18.95;100.00;99918.73;1671879;85;20923;-59
2022/10/02 00:19:09;;;;;;;10.03;8.83;;;;;;;18.95;100.00;99914.78;1700783;84;20982;-60
2022/10/02 00:21:50;;;;;;;9.40;8.17;;;;;;;18.95;100.00;99907.65;1645552;85;20998;-59
2022/10/02 00:24:20;;;;;;;;;;;;;;;18.92;100.00;99915.27;1693513;84;21206;-58
2022/10/02 00:27:14;;;;;;;9.50;7.97;;;;;;;18.88;100.00;99907.03;1709610;83;20411;-58
2022/10/02 00:29:51;;;;;;;9.90;8.33;;;;;;;18.96;100.00;99909.23;1671365;85;21033;-68
2022/10/02 00:32:29;;;;;;;9.27;8.20;;;;;;;19.08;100.00;99906.46;1701632;84;21501;-58
2022/10/02 00:35:27;;;;;;;14.03;8.43;;;;;;;19.12;100.00;99904.92;1709540;83;21052;-58
2022/10/02 00:38:22;;;;;;;9.70;7.70;;;;;;;19.13;100.00;99904.39;1672055;85;21789;-58
2022/10/02 00:41:17;;;;;;;12.70;9.33;;;;;;;19.10;100.00;99904.38;1701435;84;20938;-60
2022/10/02 00:44:19;;;;;;;12.87;9.63;;;;;;;19.20;100.00;99905.00;1709370;83;20973;-58
2022/10/02 00:46:58;;;;;;;11.70;8.60;;;;;;;19.27;100.00;99900.32;1708990;83;21517;-58
2022/10/02 00:49:51;;;;;;;7.57;6.83;;;;;;;19.29;100.00;99893.48;1689717;84;21041;-58
2022/10/02 00:52:35;;;;;;;10.77;7.97;;;;;;;19.22;100.00;99896.84;1690821;84;21156;-57
2022/10/02 00:55:16;;;;;;;12.07;7.77;;;;;;;19.29;100.00;99894.80;1720522;83;20919;-58
2022/10/02 00:58:09;;;;;;;8.38;6.95;;;;;;;19.25;100.00;99888.42;1694286;83;21677;-59
2022/10/02 01:00:36;;;;;;;9.40;8.10;;;;;;;19.24;100.00;99881.52;1690382;84;20939;-59
2022/10/02 01:03:11;;;;;;;10.37;7.20;;;;;;;19.34;100.00;99884.27;1720792;82;21551;-58
2022/10/02 01:05:38;;;;;;;9.37;7.00;;;;;;;19.27;100.00;99887.11;1681632;83;21179;-59
2022/10/02 01:08:06;;;;;;;9.83;7.03;;;;;;;19.23;100.00;99881.25;1759159;81;21418;-58
2022/10/02 01:10:34;;;;;;;9.67;7.13;;;;;;;19.26;100.00;99875.48;1714984;81;21611;-59
2022/10/02 01:13:01;;;;;;;10.33;7.30;;;;;;;19.31;100.00;99876.84;1758776;80;20988;-59
2022/10/02 01:15:33;;;;;;;8.43;6.80;;;;;;;19.34;100.00;99876.34;1759219;81;22473;-58
2022/10/02 01:18:01;;;;;;;9.23;6.80;;;;;;;19.29;100.00;99870.49;1751822;80;20987;-59
2022/10/02 01:20:35;;;;;;;7.67;6.17;;;;;;;19.28;100.00;99874.19;1759328;81;21449;-59
2022/10/02 01:23:26;;;;;;;10.17;7.43;;;;;;;19.12;100.00;99866.61;1759070;80;20979;-59
2022/10/02 01:25:54;;;;;;;8.00;6.57;;;;;;;19.20;100.00;99864.84;1759374;81;21442;-59
2022/10/02 01:28:21;;;;;;;9.90;7.77;;;;;;;19.28;100.00;99869.41;1759145;81;21178;-69
2022/10/02 01:30:52;;;;;;;11.57;8.87;;;;;;;19.22;100.00;99863.81;1758929;81;21267;-59
2022/10/02 01:33:19;;;;;;;8.93;7.97;;;;;;;19.29;100.00;99857.80;1759092;81;21501;-59
2022/10/02 01:35:46;;;;;;;10.27;8.37;;;;;;;19.37;100.00;99856.03;1759111;81;20947;-59
2022/10/02 01:38:16;;;;;;;10.47;7.17;;;;;;;19.30;100.00;99848.30;1759199;80;20907;-59
2022/10/02 01:40:44;;;;;;;8.50;6.50;;;;;;;19.37;100.00;99848.09;1758512;80;20975;-60
2022/10/02 01:43:31;;;;;;;10.67;7.00;;;;;;;19.28;100.00;99845.12;1759284;80;21429;-58
2022/10/02 01:46:33;;;;;;;7.60;6.60;;;;;;;19.22;100.00;99842.67;1752348;81;20884;-60
2022/10/02 01:49:44;;;;;;;8.83;6.40;;;;;;;19.22;100.00;99846.11;1712990;83;20951;-59
2022/10/02 01:52:44;;;;;;;10.13;7.90;;;;;;;19.25;100.00;99836.89;1748995;82;20928;-59
2022/10/02 01:55:28;;;;;;;14.93;8.40;;;;;;;19.09;100.00;99835.42;1712651;83;20936;-59
2022/10/02 01:58:22;;;;;;;9.00;8.03;;;;;;;19.04;100.00;99834.03;1756139;80;21121;-59
2022/10/02 02:01:11;;;;;;;12.80;7.83;;;;;;;19.04;100.00;99832.72;1774866;80;21450;-58
2022/10/02 02:03:47;;;;;;;9.40;7.67;;;;;;;19.08;100.00;99840.94;1761408;80;21027;-59
2022/10/02 02:06:32;;;;;;;10.73;7.20;;;;;;;18.96;100.00;99845.05;1764247;81;21499;-59
2022/10/02 02:09:11;;;;;;;10.90;7.80;;;;;;;18.90;100.00;99845.53;1764465;81;20916;-59
2022/10/02 02:11:52;;;;;;;9.13;7.10;;;;;;;18.88;100.00;99848.14;1764162;81;21124;-69
2022/10/02 02:14:31;;;;;;;10.82;8.40;;;;;;;18.85;100.00;99852.06;1761455;81;20959;-59
2022/10/02 02:17:49;;;;;;;8.20;7.20;;;;;;;19.02;100.00;99851.99;1764762;81;20972;-59
2022/10/02 02:20:28;;;;;;;10.30;7.50;;;;;;;19.05;100.00;99845.40;1764521;81;20936;-57
2022/10/02 02:22:55;;;;;;;10.10;7.57;;;;;;;18.97;100.00;99841.36;1763163;81;20965;-58
2022/10/02 02:25:27;;;;;;;9.63;7.77;;;;;;;19.05;100.00;99843.55;1764670;81;21336;-58
2022/10/02 02:27:57;;;;;;;9.30;7.53;;;;;;;19.05;100.00;99841.44;1764700;81;20988;-58
2022/10/02 02:30:25;;;;;;;14.07;8.43;;;;;;;19.06;100.00;99845.69;1764533;81;21483;-58
2022/10/02 02:33:03;;;;;;;18.53;8.17;;;;;;;19.11;100.00;99835.96;1763826;81;20933;-58
2022/10/02 02:35:38;;;;;;;11.43;7.90;;;;;;;19.07;100.00;99832.75;1764712;81;21513;-59
2022/10/02 02:38:09;;;;;;;10.70;7.17;;;;;;;19.06;100.00;99827.20;1764738;81;21285;-58
2022/10/02 02:40:39;;;;;;;12.88;7.45;;;;;;;19.07;100.00;99822.98;1764068;81;21015;-59
2022/10/02 02:43:14;;;;;;;13.07;8.43;;;;;;;19.11;100.00;99816.14;1764575;81;20969;-58
2022/10/02 02:45:56;;;;;;;11.93;8.57;;;;;;;19.11;100.00;99814.83;1763659;81;20865;-57
2022/10/02 02:48:30;;;;;;;11.73;8.17;;;;;;;19.09;100.00;99813.47;1764142;81;21545;-57
2022/10/02 02:51:01;;;;;;;10.77;7.57;;;;;;;19.07;100.00;99805.81;1764527;81;21758;-58
2022/10/02 02:53:36;;;;;;;12.28;7.28;;;;;;;19.02;100.00;99804.45;1764739;81;20948;-58
2022/10/02 02:56:04;;;;;;;8.53;7.30;;;;;;;18.94;100.00;99799.09;1764281;81;20936;-69
2022/10/02 02:58:52;;;;;;;12.10;7.97;;;;;;;19.00;100.00;99796.48;1764710;81;21054;-60
2022/10/02 03:01:21;;;;;;;9.77;7.47;;;;;;;18.95;100.00;99789.31;1764720;81;21493;-60
2022/10/02 03:03:48;;;;;;;12.70;9.07;;;;;;;18.91;100.00;99794.83;1764591;81;21880;-69
2022/10/02 03:06:32;;;;;;;9.93;7.70;;;;;;;18.89;100.00;99783.17;1758969;80;20983;-59
2022/10/02 03:09:00;;;;;;;10.30;8.37;;;;;;;18.85;100.00;99783.92;1702694;84;20912;-59
2022/10/02 03:12:06;;;;;;;9.87;7.53;;;;;;;18.82;100.00;99775.97;1738973;82;21038;-63
2022/10/02 03:14:48;;;;;;;10.07;7.77;;;;;;;18.81;100.00;99772.27;1738869;82;21062;-59
2022/10/02 03:17:41;;;;;;;11.43;8.98;;;;;;;18.76;100.00;99759.82;1703033;83;21089;-61
2022/10/02 03:20:44;;;;;;;12.63;8.13;;;;;;;18.71;100.00;99761.89;1739299;82;20936;-59
2022/10/02 03:23:28;;;;;;;11.00;8.63;;;;;;;18.63;100.00;99752.24;1703479;84;20998;-59
2022/10/02 03:26:15;;;;;;;11.50;8.10;;;;;;;18.58;100.00;99740.33;1738753;82;21055;-69
2022/10/02 03:28:52;;;;;;;10.37;8.00;;;;;;;18.73;100.00;99735.75;1738488;82;20992;-59
2022/10/02 03:31:19;;;;;;;10.33;7.80;;;;;;;18.77;100.00;99740.28;1739086;82;21246;-59
2022/10/02 03:33:47;;;;;;;10.93;7.60;;;;;;;18.78;100.00;99737.11;1702871;84;20932;-60
2022/10/02 03:36:16;;;;;;;11.77;8.03;;;;;;;18.80;100.00;99742.95;1713124;82;21005;-59
2022/10/02 03:38:43;;;;;;;10.90;8.20;;;;;;;18.67;100.00;99727.73;1739165;82;21043;-59
2022/10/02 03:41:10;;;;;;;10.97;9.20;;;;;;;18.69;100.00;99727.50;1703383;84;20892;-60
2022/10/02 03:43:37;;;;;;;10.80;9.07;;;;;;;18.74;100.00;99724.14;1738411;82;22175;-63
2022/10/02 03:46:04;;;;;;;9.20;8.30;;;;;;;18.69;100.00;99723.55;1703454;84;22184;-60
2022/10/02 03:48:32;;;;;;;9.40;7.50;;;;;;;18.69;100.00;99712.45;1739044;82;21489;-63
2022/10/02 03:50:59;;;;;;;10.00;7.53;;;;;;;18.75;100.00;99700.64;1703505;84;21535;-59
2022/10/02 03:53:35;;;;;;;10.23;7.30;;;;;;;18.78;100.00;99700.94;1738959;82;20948;-69
2022/10/02 03:56:33;;;;;;;10.93;7.33;;;;;;;18.78;100.00;99691.70;1703473;84;21237;-59
2022/10/02 03:59:01;;;;;;;8.67;7.13;;;;;;;18.74;100.00;99690.61;1738912;82;21515;-68
2022/10/02 04:01:35;;;;;;;7.33;6.37;;;;;;;18.91;100.00;99679.94;1738845;82;20984;-58
2022/10/02 04:04:10;;;;;;;8.10;6.40;;;;;;;18.92;100.00;99678.36;1702432;83;21040;-57
2022/10/02 04:06:45;;;;;;;10.73;7.40;;;;;;;18.88;100.00;99680.44;1709530;83;21556;-59
2022/10/02 04:09:23;;;;;;;8.57;7.30;;;;;;;18.85;100.00;99683.58;1707715;83;21866;-57
2022/10/02 04:11:57;;;;;;;11.10;8.47;;;;;;;18.82;100.00;99678.80;1674960;85;20964;-58
2022/10/02 04:14:44;;;;;;;9.27;8.03;;;;;;;18.97;100.00;99680.23;1648938;87;21096;-59
2022/10/02 04:17:15;;;;;;;10.53;8.67;;;;;;;19.01;100.00;99675.25;1709443;83;21114;-59
2022/10/02 04:19:52;;;;;;;10.93;8.68;;;;;;;19.00;100.00;99680.27;1709733;83;20995;-58
2022/10/02 04:22:37;;;;;;;12.03;9.93;;;;;;;19.04;100.00;99688.75;1708831;83;21240;-67
2022/10/02 04:25:21;;;;;;;13.27;10.93;;;;;;;19.11;100.00;99683.27;1674998;85;20952;-58
2022/10/02 04:28:03;;;;;;;14.23;10.60;;;;;;;19.03;100.00;99685.05;1708718;83;20933;-60
2022/10/02 04:30:31;;;;;;;14.37;11.60;;;;;;;19.11;100.00;99680.09;1709397;83;20948;-59
2022/10/02 04:33:02;;;;;;;14.87;11.07;;;;;;;19.16;100.00;99679.33;1709487;83;20916;-58
2022/10/02 04:35:53;;;;;;;16.15;12.63;;;;;;;19.08;100.00;99687.20;1707814;83;21349;-64
2022/10/02 04:38:55;;;;;;;16.62;12.33;;;;;;;19.17;100.00;99681.73;1709546;83;20904;-57
2022/10/02 04:41:46;;;;;;;16.77;12.73;;;;;;;19.13;100.00;99682.47;1673325;83;21007;-58
2022/10/02 04:44:45;;;;;;;20.73;14.63;;;;;;;19.19;100.00;99682.26;1700474;83;20872;-58
2022/10/02 04:47:36;;;;;;;20.07;14.43;;;;;;;19.29;100.00;99690.00;1709646;83;20984;-57
2022/10/02 04:50:31;;;;;;;20.62;15.72;;;;;;;19.27;100.00;99698.16;1709214;83;22972;-58
2022/10/02 04:53:13;;;;;;;21.97;16.07;;;;;;;19.31;100.00;99699.25;1709210;83;21576;-58
2022/10/02 04:56:12;;;;;;;26.10;17.67;;;;;;;19.34;100.00;99692.67;1708142;83;20912;-58
2022/10/02 04:59:05;;;;;;;23.50;16.87;;;;;;;19.36;100.00;99686.09;1709475;83;20897;-58
2022/10/02 05:01:59;;;;;;;23.17;17.50;;;;;;;19.41;100.00;99681.35;1709401;83;20916;-58
2022/10/02 05:04:55;;;;;;;24.90;18.13;;;;;;;19.44;100.00;99675.56;1708636;83;22568;-59
2022/10/02 05:07:42;;;;;;;25.73;18.27;;;;;;;19.54;100.00;99684.85;1709232;83;20896;-60
2022/10/02 05:10:37;;;;;;;25.80;20.40;;;;;;;19.60;100.00;99684.38;1709227;83;22200;-58
2022/10/02 05:13:22;;;;;;;25.10;18.90;;;;;;;19.70;100.00;99680.50;1739000;81;21580;-58
2022/10/02 05:16:16;;;;;;;26.70;18.70;;;;;;;19.69;100.00;99674.92;1744375;82;21074;-59
2022/10/02 05:19:12;;;;;;;24.80;19.20;;;;;;;19.69;100.00;99671.74;1748954;81;21255;-64
2022/10/02 05:22:00;;;;;;;32.53;24.60;;;;;;;19.82;100.00;99670.50;1744329;82;20916;-59
2022/10/02 05:24:47;;;;;;;32.33;24.80;;;;;;;19.82;100.00;99667.85;1748994;82;20987;-59
2022/10/02 05:27:42;;;;;;;30.13;23.70;;;;;;;19.85;100.00;99677.92;1727090;81;21031;-59
2022/10/02 05:30:14;;;;;;;31.50;24.20;;;;;;;19.88;100.00;99676.59;1749095;81;22369;-58
2022/10/02 05:33:10;;;;;;;26.40;21.30;;;;;;;19.74;100.00;99665.70;1749087;82;21230;-59
2022/10/02 05:35:54;;;;;;;36.47;27.87;;;;;;;19.74;100.00;99668.88;1748692;81;20924;-59
2022/10/02 05:38:45;;;;;;;42.20;29.77;;;;;;;19.68;100.00;99658.27;1749035;82;21568;-58
2022/10/02 05:41:43;;;;;;;40.30;29.87;;;;;;;19.75;100.00;99652.75;1723839;80;21015;-58
2022/10/02 05:44:34;;;;;;;37.40;28.17;;;;;;;19.75;100.00;99647.45;1726768;82;20999;-63
2022/10/02 05:47:20;;;;;;;40.70;27.77;;;;;;;19.86;100.00;99642.48;1725733;80;21260;-59
2022/10/02 05:49:52;;;;;;;39.17;29.57;;;;;;;19.99;100.00;99644.36;1748417;82;20995;-60
2022/10/02 05:52:27;;;;;;;39.07;28.97;;;;;;;20.05;100.00;99643.34;1739372;81;20905;-59
2022/10/02 05:55:23;;;;;;;37.50;28.90;;;;;;;20.13;100.00;99647.59;1730036;80;21008;-59
2022/10/02 05:57:58;;;;;;;41.47;29.67;;;;;;;20.22;100.00;99649.19;1709277;83;21422;-58
2022/10/02 06:00:48;;;;;;;40.20;30.67;;;;;;;20.28;100.00;99661.92;1727111;80;21236;-59
2022/10/02 06:03:44;;;;;;;47.03;31.40;;;;;;;20.32;100.00;99653.72;1726393;80;21065;-60
2022/10/02 06:06:33;;;;;;;36.03;27.37;;;;;;;20.38;100.00;99652.16;1712055;82;21066;-69
2022/10/02 06:09:21;;;;;;;36.13;29.07;;;;;;;20.50;100.00;99649.28;1665747;84;21546;-58
2022/10/02 06:12:14;;;;;;;34.83;26.57;;;;;;;20.62;100.00;99642.41;1692538;84;21065;-58
2022/10/02 06:14:59;;;;;;;34.27;25.67;;;;;;;20.71;100.00;99630.75;1691084;82;21307;-59
2022/10/02 06:17:46;;;;;;;29.47;23.07;;;;;;;20.74;100.00;99625.72;1701765;83;21050;-58
2022/10/02 06:20:19;;;;;;;37.87;26.33;;;;;;;20.79;100.00;99626.23;1711796;82;20904;-58
2022/10/02 06:22:50;;;;;;;30.97;24.13;;;;;;;20.97;100.00;99617.75;1697402;83;20999;-62
2022/10/02 06:25:25;;;;;;;34.27;25.83;;;;;;;21.04;100.00;99616.95;1677003;84;22359;-59
2022/10/02 06:28:00;;;;;;;30.77;24.83;;;;;;;21.20;100.00;99605.00;1697954;84;21295;-60
2022/10/02 06:30:29;;;;;;;26.63;22.57;;;;;;;21.28;100.00;99605.77;1704017;83;20998;-59
2022/10/02 06:33:20;;;;;;;31.90;23.03;;;;;;;21.38;100.00;99601.80;1705519;83;20995;-60
2022/10/02 06:36:17;;;;;;;26.60;21.37;;;;;;;21.40;100.00;99590.37;1696611;82;21003;-59
2022/10/02 06:39:17;;;;;;;27.00;22.10;;;;;;;21.59;100.00;99584.76;1671373;85;21576;-59
2022/10/02 06:41:59;;;;;;;24.90;20.23;;;;;;;21.85;100.00;99582.75;1670876;85;21246;-59
2022/10/02 06:44:59;;;;;;;22.57;19.97;;;;;;;22.23;100.00;99586.27;1671633;85;21015;-58
2022/10/02 06:47:45;;;;;;;21.27;18.83;;;;;;;22.56;100.00;99588.68;1657534;85;21066;-60
2022/10/02 06:50:21;;;;;;;20.73;18.57;;;;;;;22.77;100.00;99578.68;1671315;85;21509;-60
2022/10/02 06:53:11;;;;;;;24.60;21.43;;;;;;;22.85;100.00;99578.61;1695707;82;21528;-58
2022/10/02 06:56:08;;;;;;;24.98;21.95;;;;;;;22.87;100.00;99569.27;1689895;84;21663;-57
2022/10/02 06:59:04;;;;;;;24.57;21.93;;;;;;;22.89;100.00;99559.16;1688591;83;21026;-58
2022/10/02 07:01:45;;;;;;;26.83;22.13;;;;;;;22.95;100.00;99536.78;1697848;84;21082;-61
2022/10/02 07:04:26;;;;;;;25.67;22.87;;;;;;;22.91;100.00;99539.75;1697669;84;20897;-58
2022/10/02 07:07:32;;;;;;;25.65;22.98;;;;;;;22.91;100.00;99536.28;1648875;86;21103;-57
2022/10/02 07:10:22;;;;;;;28.00;24.93;;;;;;;22.93;100.00;99540.28;1667826;85;21233;-65
2022/10/02 07:13:10;;;;;;;24.63;21.93;;;;;;;23.02;100.00;99540.44;1667666;86;21081;-58
2022/10/02 07:16:16;;;;;;;26.00;21.53;;;;;;;23.36;100.00;99533.66;1667530;86;20895;-62
2022/10/02 07:19:16;;;;;;;24.90;21.83;;;;;;;23.87;100.00;99528.23;1667794;86;21005;-57
2022/10/02 07:22:05;;;;;;;22.47;20.20;;;;;;;24.62;100.00;99521.42;1667681;86;21019;-58
2022/10/02 07:25:20;;;;;;;19.33;17.53;;;;;;;25.48;100.00;99517.64;1667162;86;21184;-59
2022/10/02 07:28:04;;;;;;;20.27;17.83;;;;;;;26.08;100.00;99520.59;1669993;85;20950;-60
2022/10/02 07:30:41;;;;;;;18.35;16.32;;;;;;;26.36;100.00;99509.20;1670782;85;21054;-58
2022/10/02 07:33:37;;;;;;;17.75;15.98;;;;;;;26.40;100.00;99505.37;1670665;85;21002;-59
2022/10/02 07:36:12;;;;;;;18.48;16.65;;;;;;;26.28;100.00;99478.44;1670846;85;21008;-58
2022/10/02 07:38:58;;;;;;;18.12;16.42;;;;;;;26.22;100.00;99468.99;1662026;86;21283;-59
2022/10/02 07:41:55;;;;;;;17.75;16.12;;;;;;;26.30;100.00;99478.38;1648786;85;21549;-59
2022/10/02 07:45:16;;;;;;;18.95;17.10;;;;;;;26.15;100.00;99468.08;1696118;84;21074;-59
2022/10/02 07:47:51;;;;;;;20.20;18.17;;;;;;;25.98;100.00;99469.30;1697090;84;21007;-58
2022/10/02 07:50:39;;;;;;;19.80;17.67;;;;;;;25.68;100.00;99481.72;1697270;83;21053;-59
2022/10/02 07:53:15;;;;;;;20.55;17.77;;;;;;;25.35;100.00;99475.78;1697668;84;21155;-60
2022/10/02 07:55:44;;;;;;;19.32;17.42;;;;;;;25.09;100.00;99468.05;1697975;84;20998;-58
2022/10/02 07:58:25;;;;;;;20.20;18.10;;;;;;;25.10;100.00;99458.98;1698070;83;21050;-59
2022/10/02 08:01:07;;;;;;;18.32;16.45;;;;;;;25.32;100.00;99455.03;1698051;83;21410;-59
2022/10/02 08:04:03;;;;;;;20.62;18.48;;;;;;;25.43;100.00;99452.38;1699182;84;20952;-58
2022/10/02 08:06:31;;;;;;;17.80;16.05;;;;;;;25.35;100.00;99457.11;1712737;82;22533;-58
2022/10/02 08:09:11;;;;;;;18.92;17.07;;;;;;;25.09;100.00;99444.05;1739037;82;21012;-58
2022/10/02 08:11:43;;;;;;;19.50;17.52;;;;;;;24.79;100.00;99442.23;1735416;80;21006;-58
2022/10/02 08:14:24;;;;;;;19.17;17.20;;;;;;;24.52;100.00;99432.38;1748249;80;20924;-62
2022/10/02 08:16:55;;;;;;;21.57;17.17;;;;;;;24.36;100.00;99425.70;1749164;81;20924;-58
2022/10/02 08:19:44;;;;;;;18.13;16.33;;;;;;;24.22;100.00;99434.47;1742852;82;21249;-57
2022/10/02 08:22:27;;;;;;;16.73;15.03;;;;;;;24.26;100.00;99428.02;1739071;82;21003;-59
2022/10/02 08:25:07;;;;;;;16.53;14.83;;;;;;;24.17;100.00;99418.59;1693361;83;21050;-58
2022/10/02 08:28:07;;;;;;;17.55;15.72;;;;;;;24.14;100.00;99403.20;1715146;82;21391;-58
2022/10/02 08:30:35;;;;;;;18.47;16.40;;;;;;;24.08;100.00;99406.23;1718320;83;20989;-68
2022/10/02 08:33:16;;;;;;;19.60;16.60;;;;;;;24.02;100.00;99406.33;1718651;82;21241;-58
2022/10/02 08:36:11;;;;;;;14.95;13.40;;;;;;;24.07;100.00;99402.00;1718581;82;20880;-60
2022/10/02 08:38:45;;;;;;;16.70;14.97;;;;;;;24.15;100.00;99390.67;1731433;82;21058;-58
2022/10/02 08:41:29;;;;;;;15.70;14.10;;;;;;;24.27;100.00;99374.99;1739288;82;20897;-57
2022/10/02 08:44:31;;;;;;;15.63;13.87;;;;;;;24.50;100.00;99364.71;1739128;82;20893;-67
2022/10/02 08:47:33;;;;;;;;;;;;;;;24.75;100.00;99370.63;1741665;82;21247;-59
2022/10/02 08:50:29;;;;;;;13.60;12.30;;;;;;;25.01;100.00;99352.21;1679394;85;20101;-59
2022/10/02 08:53:27;;;;;;;12.00;10.90;;;;;;;25.31;100.00;99344.09;1730808;82;20904;-58
2022/10/02 08:56:33;;;;;;;12.45;11.25;;;;;;;25.91;100.00;99334.36;1739189;82;20960;-58
2022/10/02 08:59:26;;;;;;;11.28;10.28;;;;;;;26.21;100.00;99329.27;1738994;82;20885;-58
2022/10/02 09:02:26;;;;;;;10.85;9.85;;;;;;;26.40;100.00;99322.33;1739117;82;21871;-58
2022/10/02 09:05:36;;;;;;;10.40;9.30;;;;;;;26.41;100.00;99320.70;1738095;82;20948;-63
2022/10/02 09:08:08;;;;;;;11.73;8.78;;;;;;;26.38;100.00;99309.30;1692560;83;21006;-68
2022/10/02 09:11:13;;;;;;;9.50;8.60;;;;;;;26.30;100.00;99302.59;1667365;84;21030;-59
2022/10/02 09:14:13;;;;;;;10.13;8.57;;;;;;;26.28;100.00;99296.22;1659468;86;21504;-58
2022/10/02 09:16:57;;;;;;;9.75;8.78;;;;;;;26.27;100.00;99289.30;1667612;86;21253;-59
2022/10/02 09:19:56;;;;;;;11.00;9.90;;;;;;;26.15;100.00;99280.55;1659117;86;21062;-59
2022/10/02 09:22:54;;;;;;;8.70;7.73;;;;;;;26.06;100.00;99282.95;1663818;86;21095;-69
2022/10/02 09:25:38;;;;;;;8.37;7.57;;;;;;;26.01;100.00;99276.42;1691086;84;21004;-60
2022/10/02 09:28:42;;;;;;;9.63;8.10;;;;;;;25.88;100.00;99276.78;1691478;84;20979;-60
2022/10/02 09:31:46;;;;;;;8.87;8.07;;;;;;;25.72;100.00;99261.66;1690921;84;21223;-60
2022/10/02 09:34:25;;;;;;;10.90;9.87;;;;;;;25.65;100.00;99252.00;1691717;84;20948;-59
2022/10/02 09:37:15;;;;;;;10.07;9.07;;;;;;;25.76;100.00;99248.48;1691244;84;20944;-58
2022/10/02 09:40:34;;;;;;;10.93;9.33;;;;;;;25.76;100.00;99249.30;1691255;84;21033;-58
2022/10/02 09:43:42;;;;;;;9.23;8.33;;;;;;;25.66;100.00;99237.55;1691440;84;21015;-57
2022/10/02 09:46:21;;;;;;;8.23;7.37;;;;;;;25.63;100.00;99224.27;1691730;84;21326;-57
2022/10/02 09:49:20;;;;;;;9.80;8.47;;;;;;;25.54;100.00;99225.34;1691094;84;20976;-60
2022/10/02 09:52:26;;;;;;;8.90;8.00;;;;;;;25.35;100.00;99225.02;1691482;84;21024;-60
2022/10/02 09:55:34;;;;;;;10.37;7.13;;;;;;;25.29;100.00;99213.44;1691416;84;21469;-59
2022/10/02 09:58:20;;;;;;;9.00;7.33;;;;;;;25.21;100.00;99205.63;1691574;84;21066;-58
2022/10/02 10:01:20;;;;;;;8.40;7.23;;;;;;;25.27;100.00;99196.42;1691308;84;21172;-58
2022/10/02 10:03:58;;;;;;;8.77;7.47;;;;;;;25.11;100.00;99195.21;1691211;84;21012;-58
2022/10/02 10:06:48;;;;;;;11.43;9.37;;;;;;;25.02;100.00;99197.80;1691286;84;21003;-66
2022/10/02 10:09:47;;;;;;;7.90;6.73;;;;;;;24.94;100.00;99194.54;1691239;84;21046;-58
2022/10/02 10:12:40;;;;;;;7.37;6.60;;;;;;;24.84;100.00;99172.13;1711478;82;21639;-58
2022/10/02 10:16:01;;;;;;;9.53;8.53;;;;;;;24.67;100.00;99186.13;1703240;84;21908;-58
2022/10/02 10:18:46;;;;;;;10.83;9.43;;;;;;;24.63;100.00;99193.94;1738802;82;20893;-59
2022/10/02 10:21:40;;;;;;;11.40;9.47;;;;;;;24.56;100.00;99202.11;1738695;82;21071;-58
2022/10/02 10:24:44;;;;;;;10.87;9.50;;;;;;;24.49;100.00;99197.18;1702954;84;21477;-59
2022/10/02 10:27:57;;;;;;;14.03;10.50;;;;;;;24.41;100.00;99192.02;1738311;80;20995;-65
2022/10/02 10:30:38;;;;;;;18.07;12.37;;;;;;;24.32;100.00;99191.66;1663917;85;21243;-63
2022/10/02 10:33:32;;;;;;;11.83;10.63;;;;;;;24.25;100.00;99202.75;1662962;86;21088;-64
2022/10/02 10:36:07;;;;;;;11.83;9.53;;;;;;;24.26;100.00;99205.64;1701773;82;20979;-59
2022/10/02 10:38:50;;;;;;;12.63;10.20;;;;;;;24.04;100.00;99203.16;1734985;82;21074;-59
2022/10/02 10:41:58;;;;;;;13.57;10.97;;;;;;;24.07;100.00;99204.99;1718743;82;22383;-59
2022/10/02 10:44:53;;;;;;;11.70;9.77;;;;;;;23.86;100.00;99205.38;1748639;81;21217;-59
2022/10/02 10:47:35;;;;;;;11.60;10.40;;;;;;;23.91;100.00;99201.86;1748931;81;21040;-58
2022/10/02 10:50:37;;;;;;;12.23;10.93;;;;;;;23.78;100.00;99194.10;1749006;81;21090;-60
2022/10/02 10:53:42;;;;;;;13.72;10.95;;;;;;;23.69;100.00;99190.02;1739864;81;20984;-62
2022/10/02 10:56:27;;;;;;;14.07;8.53;;;;;;;23.64;100.00;99179.97;1716303;82;20992;-60
2022/10/02 10:59:23;;;;;;;12.03;8.50;;;;;;;23.55;100.00;99178.00;1738720;82;21159;-60
2022/10/02 11:02:36;;;;;;;12.17;8.60;;;;;;;23.50;100.00;99172.79;1736248;82;21545;-61
2022/10/02 11:05:17;;;;;;;8.40;6.03;;;;;;;23.45;100.00;99165.44;1702956;84;20992;-67
2022/10/02 11:08:28;;;;;;;11.33;5.90;;;;;;;23.35;100.00;99166.97;1720426;82;21111;-59
2022/10/02 11:11:37;;;;;;;5.90;4.60;;;;;;;23.29;100.00;99158.28;1698871;84;21847;-59
2022/10/02 11:14:31;;;;;;;6.83;4.60;;;;;;;23.29;100.00;99152.42;1698608;84;21177;-59
2022/10/02 11:17:30;;;;;;;8.00;5.87;;;;;;;23.30;100.00;99142.59;1699332;84;20999;-59
2022/10/02 11:20:05;;;;;;;7.30;4.67;;;;;;;23.27;100.00;99137.86;1713519;82;21099;-60
2022/10/02 11:23:21;;;;;;;6.37;4.43;;;;;;;23.28;100.00;99132.78;1724176;83;21478;-59
2022/10/02 11:26:06;;;;;;;6.53;4.80;;;;;;;23.20;100.00;99137.45;1701506;83;20962;-59
2022/10/02 11:29:13;;;;;;;7.50;4.87;;;;;;;23.21;100.00;99125.73;1701471;83;21470;-58
2022/10/02 11:32:08;;;;;;;7.10;5.50;;;;;;;23.29;100.00;99125.83;1723466;83;20891;-59
2022/10/02 11:34:58;;;;;;;5.43;4.70;;;;;;;23.23;100.00;99123.58;1712603;83;21006;-59
2022/10/02 11:37:37;;;;;;;5.33;4.17;;;;;;;23.21;100.00;99115.09;1699370;84;20959;-59
2022/10/02 11:40:35;;;;;;;8.80;4.50;;;;;;;23.41;100.00;99113.41;1693806;84;20947;-58
2022/10/02 11:43:18;;;;;;;5.03;4.03;;;;;;;23.43;100.00;99108.56;1699536;84;21815;-59
2022/10/02 11:46:15;;;;;;;6.43;4.53;;;;;;;23.39;100.00;99106.79;1693321;83;21083;-59
2022/10/02 11:48:57;;;;;;;6.40;3.90;;;;;;;23.54;100.00;99093.19;1699342;84;20983;-60
2022/10/02 11:52:04;;;;;;;9.23;4.57;;;;;;;23.50;100.00;99088.22;1699051;84;21438;-58
2022/10/02 11:54:56;;;;;;;6.77;4.40;;;;;;;23.45;100.00;99082.47;1697076;82;20932;-66
2022/10/02 11:58:03;;;;;;;8.15;4.28;;;;;;;23.37;100.00;99077.81;1705685;83;21112;-58
2022/10/02 12:00:57;;;;;;;8.13;5.83;;;;;;;23.30;100.00;99068.14;1724066;83;21031;-59
2022/10/02 12:04:00;;;;;;;9.73;6.07;;;;;;;23.31;100.00;99051.09;1723872;82;21556;-71
2022/10/02 12:07:03;;;;;;;8.77;5.80;;;;;;;23.35;100.00;99052.08;1697500;82;21003;-60
2022/10/02 12:09:54;;;;;;;8.17;4.53;;;;;;;23.28;100.00;99038.39;1699529;84;20932;-61
2022/10/02 12:12:32;;;;;;;9.85;4.45;;;;;;;23.18;100.00;99029.28;1694329;84;21864;-62
2022/10/02 12:15:08;;;;;;;7.47;4.00;;;;;;;23.08;100.00;99025.51;1698777;82;21004;-60
2022/10/02 12:18:13;;;;;;;7.20;3.90;;;;;;;23.07;100.00;99016.75;1691034;84;20971;-60
2022/10/02 12:27:31;;;;;;;7.27;4.03;;;;;;;23.00;100.00;99000.41;1698211;82;21281;-64
2022/10/02 12:30:10;;;;;;;8.07;4.90;;;;;;;22.74;100.00;98988.11;1697802;83;21003;-66
2022/10/02 12:33:20;;;;;;;6.63;4.03;;;;;;;22.72;100.00;98974.32;1697464;82;21117;-68
2022/10/02 12:36:17;;;;;;;5.90;4.00;;;;;;;22.62;100.00;98967.89;1698126;82;21094;-59
2022/10/02 12:39:19;;;;;;;6.27;3.87;;;;;;;22.56;100.00;98959.22;1695282;82;20924;-59
2022/10/02 12:42:25;;;;;;;6.93;4.63;;;;;;;22.50;100.00;98961.70;1693213;83;21206;-59
2022/10/02 12:45:34;;;;;;;7.80;4.53;;;;;;;22.51;100.00;98946.82;1699294;84;21521;-59
2022/10/02 12:48:37;;;;;;;5.50;4.30;;;;;;;22.57;100.00;98921.72;1699242;84;21137;-59
2022/10/02 12:51:26;;;;;;;6.20;4.20;;;;;;;22.38;100.00;98934.30;1679908;84;21735;-69
2022/10/02 12:54:07;;;;;;;7.57;4.77;;;;;;;22.48;100.00;98926.70;1671066;84;21142;-60